createdAt,value
2022-09-06T00:00:27.410Z,8.27
2022-09-06T00:02:57.292Z,9.27
2022-09-06T00:05:25.627Z,8.15
2022-09-06T00:07:53.790Z,7.93
2022-09-06T00:10:22.017Z,8.45
2022-09-06T00:12:50.151Z,8.93
2022-09-06T00:15:18.662Z,7.65
2022-09-06T00:17:46.845Z,7.57
2022-09-06T00:20:16.751Z,7.97
2022-09-06T00:22:44.915Z,9.27
2022-09-06T00:25:13.001Z,8.20
2022-09-06T00:27:41.120Z,7.80
2022-09-06T00:30:10.760Z,8.18
2022-09-06T00:32:38.906Z,8.73
2022-09-06T00:35:07.487Z,8.93
2022-09-06T00:37:37.039Z,9.27
2022-09-06T00:40:05.722Z,8.63
2022-09-06T00:42:33.917Z,12.05
2022-09-06T00:45:02.281Z,9.80
2022-09-06T00:47:30.864Z,10.07
2022-09-06T00:50:01.147Z,8.80
2022-09-06T00:52:31.466Z,9.60
2022-09-06T00:55:01.467Z,9.93
2022-09-06T00:57:32.215Z,9.43
2022-09-06T01:00:02.004Z,8.70
2022-09-06T01:02:30.294Z,9.15
2022-09-06T01:04:58.934Z,8.65
2022-09-06T01:07:36.612Z,8.15
2022-09-06T01:10:47.716Z,9.38
2022-09-06T01:13:28.290Z,10.00
2022-09-06T01:16:05.520Z,9.60
2022-09-06T01:18:48.369Z,9.52
2022-09-06T01:21:27.266Z,9.63
2022-09-06T01:24:25.347Z,9.98
2022-09-06T01:27:33.142Z,9.80
2022-09-06T01:30:05.167Z,10.20
2022-09-06T01:32:40.446Z,10.30
2022-09-06T01:35:18.863Z,9.70
2022-09-06T01:37:48.069Z,9.82
2022-09-06T01:40:16.247Z,9.13
2022-09-06T01:42:46.762Z,9.43
2022-09-06T01:45:18.758Z,9.68
2022-09-06T01:47:55.664Z,9.63
2022-09-06T01:50:40.585Z,9.38
2022-09-06T01:53:20.104Z,9.27
2022-09-06T01:55:57.204Z,10.13
2022-09-06T01:58:46.141Z,8.70
2022-09-06T02:01:22.183Z,9.73
2022-09-06T02:03:58.283Z,10.52
2022-09-06T02:06:30.243Z,9.32
2022-09-06T02:09:03.769Z,9.10
2022-09-06T02:11:38.277Z,8.13
2022-09-06T02:14:11.275Z,11.18
2022-09-06T02:16:43.158Z,9.43
2022-09-06T02:19:16.252Z,9.43
2022-09-06T02:21:47.652Z,9.43
2022-09-06T02:24:20.373Z,10.05
2022-09-06T02:26:49.042Z,10.23
2022-09-06T02:29:19.560Z,9.85
2022-09-06T02:31:54.742Z,10.95
2022-09-06T02:34:23.451Z,11.10
2022-09-06T02:36:51.869Z,11.48
2022-09-06T02:39:20.005Z,12.25
2022-09-06T02:41:49.259Z,10.82
2022-09-06T02:44:18.711Z,11.02
2022-09-06T02:46:46.945Z,11.43
2022-09-06T02:49:15.141Z,11.00
2022-09-06T02:51:43.173Z,10.93
2022-09-06T02:54:11.389Z,10.35
2022-09-06T02:56:39.406Z,10.57
2022-09-06T02:59:07.603Z,9.68
2022-09-06T03:01:37.536Z,10.60
2022-09-06T03:04:05.897Z,10.38
2022-09-06T03:06:34.609Z,9.30
2022-09-06T03:09:03.179Z,7.88
2022-09-06T03:11:31.378Z,9.07
2022-09-06T03:13:59.438Z,10.77
2022-09-06T03:16:27.606Z,10.27
2022-09-06T03:18:57.376Z,9.07
2022-09-06T03:21:25.578Z,10.93
2022-09-06T03:23:54.844Z,9.48
2022-09-06T03:26:23.043Z,10.55
2022-09-06T03:28:51.302Z,10.80
2022-09-06T03:31:19.395Z,8.85
2022-09-06T03:33:47.863Z,11.32
2022-09-06T03:36:17.416Z,10.07
2022-09-06T03:38:45.925Z,12.77
2022-09-06T03:41:14.060Z,12.68
2022-09-06T03:43:42.230Z,11.48
2022-09-06T03:46:10.414Z,10.45
2022-09-06T03:48:38.601Z,12.15
2022-09-06T03:51:07.167Z,11.07
2022-09-06T03:53:36.843Z,12.02
2022-09-06T03:56:05.143Z,11.68
2022-09-06T03:58:34.198Z,12.48
2022-09-06T04:01:08.199Z,12.10
2022-09-06T04:03:37.289Z,11.27
2022-09-06T04:06:06.900Z,12.68
2022-09-06T04:08:37.281Z,11.50
2022-09-06T04:11:06.517Z,12.38
2022-09-06T04:13:35.504Z,11.35
2022-09-06T04:16:04.647Z,10.38
2022-09-06T04:18:33.520Z,11.32
2022-09-06T04:21:01.660Z,11.43
2022-09-06T04:23:30.505Z,11.18
2022-09-06T04:26:00.763Z,13.23
2022-09-06T04:28:29.448Z,13.60
2022-09-06T04:31:03.916Z,14.23
2022-09-06T04:33:35.148Z,11.52
2022-09-06T04:36:05.089Z,11.30
2022-09-06T04:38:37.955Z,12.40
2022-09-06T04:41:08.678Z,13.60
2022-09-06T04:43:37.092Z,14.82
2022-09-06T04:46:07.612Z,13.05
2022-09-06T04:48:35.843Z,13.52
2022-09-06T04:51:03.903Z,11.93
2022-09-06T04:53:32.024Z,12.20
2022-09-06T04:56:00.404Z,12.60
2022-09-06T04:58:29.878Z,11.43
2022-09-06T05:00:58.016Z,11.68
2022-09-06T05:03:26.132Z,11.70
2022-09-06T05:05:54.349Z,12.48
2022-09-06T05:08:22.548Z,10.93
2022-09-06T05:10:52.741Z,12.13
2022-09-06T05:13:20.818Z,9.98
2022-09-06T05:15:50.594Z,9.00
2022-09-06T05:18:18.694Z,9.15
2022-09-06T05:20:52.881Z,10.73
2022-09-06T05:23:21.198Z,10.35
2022-09-06T05:25:50.075Z,10.05
2022-09-06T05:28:18.734Z,9.90
2022-09-06T05:30:47.229Z,9.15
2022-09-06T05:33:22.479Z,9.20
2022-09-06T05:35:51.195Z,11.50
2022-09-06T05:38:19.201Z,10.73
2022-09-06T05:40:47.385Z,12.18
2022-09-06T05:43:15.579Z,12.68
2022-09-06T05:45:43.752Z,12.30
2022-09-06T05:48:11.801Z,11.68
2022-09-06T05:50:41.217Z,12.30
2022-09-06T05:53:09.472Z,12.98
2022-09-06T05:55:41.103Z,12.75
2022-09-06T05:58:11.060Z,13.35
2022-09-06T06:00:39.239Z,12.10
2022-09-06T06:03:07.403Z,12.23
2022-09-06T06:05:35.490Z,13.07
2022-09-06T06:08:05.228Z,12.05
2022-09-06T06:10:38.367Z,13.82
2022-09-06T06:13:06.827Z,13.48
2022-09-06T06:15:35.085Z,13.45
2022-09-06T06:18:03.245Z,12.90
2022-09-06T06:20:31.389Z,12.90
2022-09-06T06:22:59.791Z,13.60
2022-09-06T06:25:29.380Z,13.35
2022-09-06T06:27:57.685Z,12.10
2022-09-06T06:30:26.129Z,13.63
2022-09-06T06:32:54.307Z,13.02
2022-09-06T06:35:22.421Z,13.75
2022-09-06T06:37:50.637Z,13.77
2022-09-06T06:40:18.867Z,14.80
2022-09-06T06:42:48.608Z,15.02
2022-09-06T06:45:17.256Z,12.05
2022-09-06T06:47:45.405Z,12.88
2022-09-06T06:50:13.548Z,12.43
2022-09-06T06:52:41.779Z,12.70
2022-09-06T06:55:10.693Z,13.50
2022-09-06T06:57:38.727Z,12.95
2022-09-06T07:00:11.024Z,12.15
2022-09-06T07:02:39.330Z,11.75
2022-09-06T07:07:56.299Z,12.65
2022-09-06T07:13:00.486Z,11.25
2022-09-06T07:15:30.157Z,10.90
2022-09-06T07:17:58.697Z,11.00
2022-09-06T07:20:27.338Z,10.80
2022-09-06T07:25:50.566Z,10.15
2022-09-06T07:28:19.029Z,10.57
2022-09-06T07:30:48.537Z,10.85
2022-09-06T07:33:16.689Z,10.95
2022-09-06T07:35:44.891Z,11.10
2022-09-06T07:38:13.048Z,9.73
2022-09-06T07:40:41.120Z,10.00
2022-09-06T07:43:09.197Z,10.68
2022-09-06T07:45:37.759Z,11.32
2022-09-06T07:48:07.152Z,9.77
2022-09-06T07:50:51.851Z,9.95
2022-09-06T07:53:30.274Z,9.95
2022-09-06T07:55:59.575Z,10.45
2022-09-06T07:58:27.795Z,9.95
2022-09-06T08:00:56.128Z,9.05
2022-09-06T08:03:25.864Z,10.23
2022-09-06T08:06:10.248Z,8.68
2022-09-06T08:11:29.142Z,8.70
2022-09-06T08:13:58.571Z,8.23
2022-09-06T08:16:28.905Z,8.25
2022-09-06T08:19:00.378Z,6.93
2022-09-06T08:21:32.190Z,8.57
2022-09-06T08:24:02.392Z,8.30
2022-09-06T08:26:31.909Z,8.52
2022-09-06T08:29:01.374Z,7.82
2022-09-06T08:31:30.684Z,7.95
2022-09-06T08:34:01.610Z,7.93
2022-09-06T08:36:30.926Z,7.65
2022-09-06T08:38:59.221Z,7.43
2022-09-06T08:41:30.776Z,7.40
2022-09-06T08:46:58.251Z,8.35
2022-09-06T08:49:31.482Z,6.40
2022-09-06T08:52:21.518Z,7.03
2022-09-06T08:54:57.739Z,6.05
2022-09-06T08:57:40.284Z,7.05
2022-09-06T09:00:11.878Z,5.95
2022-09-06T09:02:45.260Z,5.90
2022-09-06T09:05:25.816Z,5.88
2022-09-06T09:08:05.469Z,5.85
2022-09-06T09:10:41.482Z,6.45
2022-09-06T09:13:17.342Z,7.63
2022-09-06T09:18:13.730Z,6.88
2022-09-06T09:20:43.432Z,6.43
2022-09-06T09:23:11.854Z,6.82
2022-09-06T09:25:40.868Z,6.20
2022-09-06T09:28:17.643Z,6.03
2022-09-06T09:30:49.410Z,6.78
2022-09-06T09:33:30.227Z,6.30
2022-09-06T09:36:02.371Z,6.32
2022-09-06T09:38:35.040Z,12.60
2022-09-06T09:41:06.431Z,6.63
2022-09-06T09:43:37.619Z,6.93
2022-09-06T09:46:17.909Z,7.47
2022-09-06T09:49:01.578Z,6.25
2022-09-06T09:51:32.977Z,6.10
2022-09-06T09:54:03.786Z,7.10
2022-09-06T09:56:40.889Z,5.82
2022-09-06T09:59:19.906Z,6.03
2022-09-06T10:01:48.406Z,6.53
2022-09-06T10:07:14.232Z,6.35
2022-09-06T10:09:44.888Z,6.35
2022-09-06T10:12:19.139Z,5.25
2022-09-06T10:14:49.476Z,4.65
2022-09-06T10:17:23.321Z,5.60
2022-09-06T10:19:51.614Z,4.95
2022-09-06T10:22:30.225Z,5.25
2022-09-06T10:25:22.454Z,7.05
2022-09-06T10:28:22.222Z,5.07
2022-09-06T10:31:02.350Z,4.75
2022-09-06T10:33:41.989Z,4.80
2022-09-06T10:36:10.430Z,5.15
2022-09-06T10:38:49.477Z,4.13
2022-09-06T10:41:33.294Z,3.78
2022-09-06T10:44:19.704Z,4.65
2022-09-06T10:46:49.445Z,9.65
2022-09-06T10:49:20.426Z,6.07
2022-09-06T10:51:53.370Z,5.10
2022-09-06T10:54:24.771Z,4.88
2022-09-06T10:56:56.950Z,3.80
2022-09-06T10:59:37.712Z,5.82
2022-09-06T11:02:16.310Z,6.78
2022-09-06T11:07:39.442Z,5.40
2022-09-06T11:10:16.123Z,7.43
2022-09-06T11:12:50.599Z,5.35
2022-09-06T11:15:20.610Z,5.22
2022-09-06T11:17:53.935Z,4.13
2022-09-06T11:20:31.916Z,5.25
2022-09-06T11:23:15.690Z,4.82
2022-09-06T11:26:18.375Z,4.32
2022-09-06T11:28:49.697Z,4.40
2022-09-06T11:34:21.798Z,3.58
2022-09-06T11:36:52.067Z,4.65
2022-09-06T11:43:03.808Z,4.88
2022-09-06T11:45:44.673Z,4.00
2022-09-06T11:48:59.759Z,3.17
2022-09-06T11:51:37.716Z,6.68
2022-09-06T11:54:23.296Z,3.30
2022-09-06T11:56:56.788Z,3.35
2022-09-06T11:59:36.593Z,3.67
2022-09-06T12:02:07.319Z,3.45
2022-09-06T12:05:17.906Z,6.05
2022-09-06T12:08:35.334Z,5.28
2022-09-06T12:11:21.899Z,4.55
2022-09-06T12:13:56.369Z,3.55
2022-09-06T12:16:26.615Z,4.53
2022-09-06T12:19:02.718Z,3.72
2022-09-06T12:21:53.139Z,5.05
2022-09-06T12:24:54.312Z,4.57
2022-09-06T12:27:24.222Z,3.95
2022-09-06T12:29:56.222Z,5.30
2022-09-06T12:32:31.691Z,4.00
2022-09-06T12:37:57.314Z,3.55
2022-09-06T12:40:27.761Z,3.28
2022-09-06T12:42:56.410Z,2.95
2022-09-06T12:45:27.590Z,3.67
2022-09-06T12:48:09.639Z,3.50
2022-09-06T12:50:38.614Z,3.92
2022-09-06T12:53:23.626Z,4.43
2022-09-06T12:56:04.589Z,4.78
2022-09-06T12:58:32.784Z,4.45
2022-09-06T13:01:08.467Z,3.65
2022-09-06T13:03:41.996Z,4.15
2022-09-06T13:06:16.209Z,5.43
2022-09-06T13:08:48.425Z,3.75
2022-09-06T13:11:25.775Z,4.90
2022-09-06T13:13:55.769Z,3.42
2022-09-06T13:16:26.163Z,3.63
2022-09-06T13:18:56.170Z,4.20
2022-09-06T13:21:32.786Z,3.60
2022-09-06T13:24:04.111Z,3.90
2022-09-06T13:26:37.682Z,3.28
2022-09-06T13:29:23.103Z,3.22
2022-09-06T13:31:53.224Z,4.40
2022-09-06T13:34:24.935Z,3.30
2022-09-06T13:36:55.410Z,3.13
2022-09-06T13:39:35.360Z,5.93
2022-09-06T13:42:07.363Z,3.33
2022-09-06T13:44:37.472Z,2.63
2022-09-06T13:47:06.899Z,3.97
2022-09-06T13:49:36.471Z,3.67
2022-09-06T13:52:06.178Z,2.97
2022-09-06T13:54:34.784Z,3.88
2022-09-06T13:57:03.936Z,4.10
2022-09-06T13:59:32.220Z,2.67
2022-09-06T14:02:07.732Z,3.53
2022-09-06T14:04:37.963Z,3.13
2022-09-06T14:07:06.781Z,2.80
2022-09-06T14:09:35.097Z,2.47
2022-09-06T14:12:03.389Z,3.13
2022-09-06T14:14:31.559Z,2.00
2022-09-06T14:16:59.793Z,3.28
2022-09-06T14:19:28.922Z,2.45
2022-09-06T14:21:58.527Z,3.38
2022-09-06T14:24:27.036Z,3.45
2022-09-06T14:26:55.356Z,4.45
2022-09-06T14:29:23.692Z,3.60
2022-09-06T14:31:52.294Z,3.75
2022-09-06T14:34:20.579Z,2.25
2022-09-06T14:36:48.792Z,3.30
2022-09-06T14:39:18.671Z,2.42
2022-09-06T14:41:47.002Z,2.78
2022-09-06T14:44:15.223Z,2.63
2022-09-06T14:46:43.449Z,2.35
2022-09-06T14:49:11.851Z,2.35
2022-09-06T14:51:40.709Z,3.78
2022-09-06T14:54:10.772Z,2.88
2022-09-06T14:56:41.939Z,2.72
2022-09-06T14:59:10.729Z,4.07
2022-09-06T15:01:40.372Z,3.10
2022-09-06T15:04:10.503Z,2.60
2022-09-06T15:06:40.765Z,2.38
2022-09-06T15:09:11.499Z,3.55
2022-09-06T15:11:43.429Z,4.38
2022-09-06T15:14:15.956Z,3.30
2022-09-06T15:16:44.746Z,4.60
2022-09-06T15:19:13.080Z,3.67
2022-09-06T15:21:42.072Z,2.45
2022-09-06T15:24:12.103Z,3.47
2022-09-06T15:26:42.759Z,4.15
2022-09-06T15:29:12.329Z,3.55
2022-09-06T15:31:40.842Z,2.20
2022-09-06T15:34:09.904Z,2.50
2022-09-06T15:36:38.831Z,3.10
2022-09-06T15:39:07.482Z,3.42
2022-09-06T15:41:37.449Z,4.22
2022-09-06T15:44:10.559Z,3.20
2022-09-06T15:46:48.065Z,3.72
2022-09-06T15:49:18.086Z,3.22
2022-09-06T15:51:46.693Z,3.53
2022-09-06T15:54:17.017Z,4.63
2022-09-06T15:56:45.729Z,3.25
2022-09-06T15:59:15.232Z,2.95
2022-09-06T16:01:43.516Z,3.50
2022-09-06T16:04:11.661Z,2.83
2022-09-06T16:06:42.514Z,2.25
2022-09-06T16:09:14.120Z,4.80
2022-09-06T16:11:43.123Z,3.92
2022-09-06T16:14:15.429Z,2.33
2022-09-06T16:16:44.719Z,3.40
2022-09-06T16:19:14.101Z,5.65
2022-09-06T16:21:43.807Z,3.10
2022-09-06T16:24:14.051Z,3.78
2022-09-06T16:26:43.944Z,3.25
2022-09-06T16:29:15.576Z,6.47
2022-09-06T16:31:44.039Z,3.45
2022-09-06T16:34:13.274Z,3.08
2022-09-06T16:36:41.903Z,3.03
2022-09-06T16:39:10.778Z,2.72
2022-09-06T16:41:41.029Z,3.03
2022-09-06T16:44:10.045Z,4.40
2022-09-06T16:46:40.262Z,3.38
2022-09-06T16:49:08.566Z,2.65
2022-09-06T16:51:36.817Z,3.00
2022-09-06T16:54:04.983Z,2.83
2022-09-06T16:56:35.891Z,2.85
2022-09-06T16:59:06.516Z,4.97
2022-09-06T17:01:36.233Z,4.70
2022-09-06T17:04:06.800Z,4.78
2022-09-06T17:06:42.212Z,4.35
2022-09-06T17:11:40.065Z,2.97
2022-09-06T17:14:08.615Z,3.22
2022-09-06T17:16:54.524Z,3.53
2022-09-06T17:19:24.113Z,5.28
2022-09-06T17:21:52.446Z,4.25
2022-09-06T17:24:20.746Z,5.25
2022-09-06T17:26:49.000Z,3.40
2022-09-06T17:29:17.314Z,4.68
2022-09-06T17:31:45.405Z,2.78
2022-09-06T17:34:13.608Z,6.40
2022-09-06T17:36:43.468Z,3.83
2022-09-06T17:39:14.540Z,4.60
2022-09-06T17:41:45.826Z,4.18
2022-09-06T17:44:16.658Z,4.18
2022-09-06T17:47:02.730Z,3.90
2022-09-06T17:49:31.194Z,4.80
2022-09-06T17:52:00.613Z,4.22
2022-09-06T17:54:29.763Z,4.10
2022-09-06T17:56:58.010Z,5.35
2022-09-06T17:59:26.022Z,2.92
2022-09-06T18:01:54.169Z,4.57
2022-09-06T18:04:22.324Z,3.15
2022-09-06T18:06:50.337Z,5.78
2022-09-06T18:09:19.768Z,6.28
2022-09-06T18:11:47.998Z,5.53
2022-09-06T18:14:18.056Z,3.53
2022-09-06T18:16:48.039Z,4.65
2022-09-06T18:19:17.533Z,3.35
2022-09-06T18:21:46.344Z,5.85
2022-09-06T18:24:14.789Z,4.97
2022-09-06T18:26:44.969Z,6.43
2022-09-06T18:29:15.037Z,5.32
2022-09-06T18:31:43.859Z,5.35
2022-09-06T18:34:12.538Z,4.93
2022-09-06T18:36:41.346Z,4.75
2022-09-06T18:39:11.328Z,5.43
2022-09-06T18:41:56.777Z,5.38
2022-09-06T18:44:30.223Z,4.95
2022-09-06T18:47:01.232Z,5.45
2022-09-06T18:49:30.117Z,7.20
2022-09-06T18:51:58.183Z,4.65
2022-09-06T18:54:26.566Z,5.45
2022-09-06T18:56:55.378Z,4.85
2022-09-06T18:59:26.263Z,4.47
2022-09-06T19:01:55.069Z,6.18
2022-09-06T19:04:23.408Z,5.90
2022-09-06T19:06:51.518Z,3.72
2022-09-06T19:09:19.655Z,4.28
2022-09-06T19:11:51.573Z,5.10
2022-09-06T19:14:20.366Z,4.53
2022-09-06T19:16:50.151Z,4.50
2022-09-06T19:19:18.667Z,7.85
2022-09-06T19:21:46.824Z,5.88
2022-09-06T19:24:16.122Z,4.05
2022-09-06T19:26:46.375Z,5.90
2022-09-06T19:29:17.097Z,5.85
2022-09-06T19:31:45.885Z,4.65
2022-09-06T19:34:16.276Z,4.55
2022-09-06T19:36:45.095Z,6.00
2022-09-06T19:39:15.427Z,7.07
2022-09-06T19:41:45.238Z,8.60
2022-09-06T19:44:14.378Z,4.10
2022-09-06T19:46:45.920Z,5.88
2022-09-06T19:49:17.236Z,7.43
2022-09-06T19:51:46.474Z,6.63
2022-09-06T19:54:15.573Z,5.03
2022-09-06T19:56:44.288Z,5.10
2022-09-06T19:59:13.238Z,7.68
2022-09-06T20:01:43.211Z,5.82
2022-09-06T20:04:12.907Z,5.93
2022-09-06T20:06:42.479Z,5.95
2022-09-06T20:09:11.747Z,6.18
2022-09-06T20:11:41.148Z,6.82
2022-09-06T20:14:09.935Z,6.28
2022-09-06T20:16:41.886Z,8.00
2022-09-06T20:19:12.245Z,6.80
2022-09-06T20:21:40.439Z,7.13
2022-09-06T20:24:10.365Z,7.20
2022-09-06T20:26:38.635Z,6.47
2022-09-06T20:29:07.247Z,9.43
2022-09-06T20:31:38.033Z,6.65
2022-09-06T20:34:07.066Z,7.55
2022-09-06T20:36:35.349Z,9.02
2022-09-06T20:39:03.495Z,7.28
2022-09-06T20:41:33.833Z,7.35
2022-09-06T20:44:02.156Z,8.60
2022-09-06T20:46:32.144Z,6.35
2022-09-06T20:49:04.424Z,8.05
2022-09-06T20:51:35.280Z,10.80
2022-09-06T20:54:05.225Z,8.15
2022-09-06T20:56:37.404Z,6.65
2022-09-06T20:59:08.595Z,7.13
2022-09-06T21:01:40.216Z,9.75
2022-09-06T21:04:10.243Z,7.05
2022-09-06T21:06:40.258Z,6.65
2022-09-06T21:09:10.598Z,6.85
2022-09-06T21:11:41.136Z,7.28
2022-09-06T21:14:10.308Z,7.07
2022-09-06T21:16:39.489Z,6.45
2022-09-06T21:19:11.192Z,7.30
2022-09-06T21:21:40.664Z,7.78
2022-09-06T21:24:09.900Z,7.47
2022-09-06T21:26:39.609Z,8.23
2022-09-06T21:29:07.948Z,8.30
2022-09-06T21:31:37.609Z,7.13
2022-09-06T21:34:08.511Z,9.45
2022-09-06T21:36:39.277Z,8.68
2022-09-06T21:39:09.625Z,8.48
2022-09-06T21:41:41.012Z,8.63
2022-09-06T21:44:10.507Z,7.40
2022-09-06T21:46:40.293Z,9.15
2022-09-06T21:49:10.377Z,8.23
2022-09-06T21:51:39.095Z,7.70
2022-09-06T21:54:07.775Z,8.60
2022-09-06T21:56:39.983Z,8.43
2022-09-06T21:59:09.162Z,7.80
2022-09-06T22:01:39.398Z,8.98
2022-09-06T22:04:09.295Z,8.02
2022-09-06T22:06:37.921Z,8.02
2022-09-06T22:09:10.593Z,8.68
2022-09-06T22:11:41.445Z,7.60
2022-09-06T22:14:11.551Z,7.63
2022-09-06T22:16:41.520Z,8.25
2022-09-06T22:19:10.332Z,8.38
2022-09-06T22:21:39.348Z,8.45
2022-09-06T22:24:09.087Z,11.13
2022-09-06T22:26:40.042Z,8.50
2022-09-06T22:29:09.741Z,8.40
2022-09-06T22:31:38.540Z,9.38
2022-09-06T22:34:07.689Z,8.40
2022-09-06T22:36:35.852Z,8.10
2022-09-06T22:39:04.552Z,10.32
2022-09-06T22:41:33.948Z,8.05
2022-09-06T22:44:04.993Z,8.30
2022-09-06T22:46:33.548Z,10.10
2022-09-06T22:49:02.491Z,9.05
2022-09-06T22:51:30.882Z,10.70
2022-09-06T22:53:59.000Z,9.35
2022-09-06T22:56:27.276Z,8.75
2022-09-06T22:58:55.452Z,8.60
2022-09-06T23:01:24.934Z,9.75
2022-09-06T23:03:53.232Z,9.55
2022-09-06T23:06:21.715Z,10.95
2022-09-06T23:08:50.825Z,9.95
2022-09-06T23:11:20.045Z,9.55
2022-09-06T23:13:48.326Z,8.18
2022-09-06T23:16:18.850Z,8.88
2022-09-06T23:18:49.425Z,8.77
2022-09-06T23:21:19.357Z,8.43
2022-09-06T23:23:49.309Z,9.57
2022-09-06T23:26:19.377Z,10.02
2022-09-06T23:28:47.656Z,10.00
2022-09-06T23:31:16.861Z,8.57
2022-09-06T23:33:45.482Z,9.32
2022-09-06T23:36:15.267Z,8.40
2022-09-06T23:38:43.676Z,8.75
2022-09-06T23:41:13.463Z,9.07
2022-09-06T23:43:43.990Z,9.35
2022-09-06T23:46:14.835Z,7.88
2022-09-06T23:48:43.895Z,11.15
2022-09-06T23:51:14.025Z,9.40
2022-09-06T23:53:42.318Z,8.80
2022-09-06T23:56:10.715Z,12.45
2022-09-06T23:58:39.563Z,8.88
